• Join FlightAware (Why Join?)
  • Login
  • US Flag 
08:23AM EST


 

Airport Tracker/Info


-or-


 

Live Flight TrackerFlight Track Log ✈ UAL33 ✈ 28-Sep-2013 ✈ RJAA / NRT - KLAX

Flight Track Log - Related Links

Times and Time Zones

All times are in EDT time to prevent confusion due to time zone crossing. See the UAL33 flight status page for this flight to view local times or setup timezone preferences in your user account.

Time Position Orientation Groundspeed Altitude Reporting Facility
EDT Latitude Longitude Course Direction KTS MPH feet Rate Location/Type
04:52AM 35.7780 140.3640 328° Northwest 178 205 1,000  Level FlightAware
04:52AM 35.7890 140.3570 333° Northwest 182 209 1,600 2,160 Climbing FlightAware
04:53AM 35.8080 140.3440 331° Northwest 193 222 2,400 2,220 Climbing FlightAware
04:53AM 35.8250 140.3320 330° Northwest 200 230 3,300 1,980 Climbing FlightAware
04:53AM 35.8400 140.3210 329° Northwest 221 254 3,700 1,500 Climbing FlightAware
04:54AM 35.8650 140.3030 330° Northwest 255 293 4,400 1,860 Climbing FlightAware
04:54AM 35.8840 140.2890 329° Northwest 270 311 5,100 2,340 Climbing FlightAware
04:54AM 35.9050 140.2730 328° Northwest 278 320 5,900 2,220 Climbing FlightAware
04:55AM 35.9240 140.2600 331° Northwest 276 318 6,500 1,380 Climbing FlightAware
04:55AM 35.9480 140.2420 329° Northwest 278 320 6,800 540 Climbing FlightAware
04:55AM 35.9630 140.2350 339° North 280 322 6,800  Level FlightAware
04:55AM 35.9720 140.2330 350° North 282 325 6,800  Level FlightAware
04:56AM 36.0050 140.2500 23° Northeast 284 327 6,800  Level FlightAware
04:56AM 36.0120 140.2610 52° Northeast 285 328 6,800  Level FlightAware
04:56AM 36.0140 140.2660 64° Northeast 285 328 6,800  Level FlightAware
04:56AM 36.0170 140.2790 74° East 286 329 6,800 -480 Level FlightAware
04:56AM 36.0180 140.2880 82° East 287 330 6,700 180 Descending FlightAware
04:57AM 36.0130 140.3140 103° East 286 329 6,900 1,380 Climbing FlightAware
04:57AM 36.0040 140.3290 127° Southeast 280 322 7,400 3,600 Climbing FlightAware
04:57AM 35.9860 140.3550 131° Southeast 281 323 8,700 2,820 Climbing FlightAware
04:57AM 35.9670 140.3850 128° Southeast 285 328 9,700 1,920 Climbing FlightAware
04:58AM 35.9320 140.4390 129° Southeast 330 380 10,800 1,800 Climbing FlightAware
04:59AM 35.8980 140.4900 129° Southeast 347 399 11,900 2,100 Climbing FlightAware
04:59AM 35.8650 140.5400 129° Southeast 363 418 13,100 2,280 Climbing FlightAware
05:00AM 35.8200 140.6070 130° Southeast 380 437 14,500 1,560 Climbing FlightAware
05:00AM 35.7800 140.6680 129° Southeast 395 455 15,000 360 Climbing FlightAware
05:01AM 35.7440 140.7350 123° Southeast 388 447 15,000  Level FlightAware
05:01AM 35.7400 140.7610 101° East 386 444 15,000  Level FlightAware
05:02AM 35.7580 140.8550 77° East 389 448 15,000 540 Level FlightAware
05:03AM 35.7770 140.9330 73° East 400 460 15,800 1,620 Climbing FlightAware
05:03AM 35.7940 141.0020 73° East 406 467 16,900 1,920 Climbing FlightAware
05:04AM 35.8100 141.0810 76° East 417 480 18,000 1,860 Climbing FlightAware
05:04AM 35.8180 141.1710 84° East 424 488 19,200 1,680 Climbing FlightAware
05:05AM 35.8270 141.2710 84° East 441 507 20,200 1,500 Climbing FlightAware
05:06AM 35.8370 141.3700 83° East 450 518 21,300 1,680 Climbing FlightAware
05:06AM 35.8450 141.4600 84° East 455 524 22,300 1,680 Climbing FlightAware
05:07AM 35.8530 141.5530 84° East 460 529 23,300 1,500 Climbing FlightAware
05:07AM 35.8620 141.6450 83° East 469 540 24,100 1,260 Climbing FlightAware
05:08AM 35.8690 141.7330 84° East 477 549 24,900 1,380 Climbing FlightAware
05:09AM 35.8770 141.8210 84° East 482 555 25,700 1,440 Climbing FlightAware
05:09AM 35.8860 141.9140 83° East 487 560 26,500 1,200 Climbing FlightAware
05:10AM 35.8940 142.0110 84° East 492 566 27,200 1,320 Climbing FlightAware
05:10AM 35.9040 142.1250 84° East 498 573 28,100 1,320 Climbing FlightAware
05:11AM 35.9140 142.2490 84° East 504 580 29,000 1,140 Climbing FlightAware
05:11AM 35.9200 142.3180 84° East 507 583 29,500 960 Climbing FlightAware
05:12AM 35.9290 142.4320 84° East 513 590 30,100 960 Climbing FlightAware
05:13AM 35.9410 142.5740 84° East 523 602 30,900 1,020 Climbing FlightAware
05:13AM 35.9490 142.6650 84° East 528 608 31,400 1,020 Climbing FlightAware
05:14AM 35.9580 142.7790 84° East 533 613 32,100 960 Climbing FlightAware
05:15AM 35.9670 142.8920 84° East 538 619 32,600 900 Climbing FlightAware
05:15AM 35.9730 142.9730 85° East 541 623 33,100 1,260 Climbing FlightAware
05:16AM 35.9830 143.1000 84° East 536 617 34,100 1,440 Climbing FlightAware
05:16AM 35.9910 143.2050 85° East 532 612 34,900 1,260 Climbing FlightAware
05:17AM 36.0000 143.3160 84° East 530 610 35,600 1,080 Climbing FlightAware
05:18AM 36.0070 143.4130 85° East 529 609 36,200 900 Climbing FlightAware
05:18AM 36.0150 143.5260 85° East 529 609 36,700 600 Climbing FlightAware
05:19AM 36.0230 143.6390 85° East 530 610 37,000 240 Climbing FlightAware
05:19AM 36.0310 143.7480 85° East 529 609 37,000  Level FlightAware
05:20AM 36.0400 143.8510 84° East 528 608 37,000  Level FlightAware
05:21AM 36.0470 143.9430 85° East 528 608 37,000  Level FlightAware
05:21AM 36.0550 144.0350 84° East 528 608 37,000  Level FlightAware
05:22AM 36.0630 144.1290 84° East 528 608 37,000  Level FlightAware
05:22AM 36.0710 144.2210 84° East 528 608 37,000  Level FlightAware
05:23AM 36.0790 144.3130 84° East 528 608 37,000  Level FlightAware
05:24AM 36.0870 144.4080 84° East 528 608 37,000  Level FlightAware
05:24AM 36.0950 144.5000 84° East 528 608 37,000  Level FlightAware
05:25AM 36.1030 144.5940 84° East 528 608 37,000  Level FlightAware
05:26AM 36.1100 144.6860 85° East 528 608 37,000  Level FlightAware
05:26AM 36.1180 144.7780 84° East 528 608 37,000  Level FlightAware
05:27AM 36.1260 144.8700 84° East 528 608 37,000  Level FlightAware
05:27AM 36.1340 144.9630 84° East 528 608 37,000  Level FlightAware
05:28AM 36.1420 145.0550 84° East 528 608 37,000  Level FlightAware
05:29AM 36.1490 145.1470 85° East 528 608 37,000  Level FlightAware
05:29AM 36.1570 145.2390 84° East 528 608 37,000  Level FlightAware
05:32AM 36.2558 145.6480 54° Northeast  Level FlightAware Approximate
05:33AM 36.3495 145.7929 51° Northeast  Level FlightAware Approximate
05:34AM 36.4439 145.9373 51° Northeast  Level FlightAware Approximate
05:35AM 36.5381 146.0821 51° Northeast  Level FlightAware Approximate
05:36AM 36.6322 146.2273 51° Northeast  Level FlightAware Approximate
05:37AM 36.7261 146.3728 51° Northeast  Level FlightAware Approximate
05:38AM 36.8198 146.5186 51° Northeast  Level FlightAware Approximate
05:39AM 36.9133 146.6648 51° Northeast  Level FlightAware Approximate
05:40AM 37.0066 146.8114 51° Northeast  Level FlightAware Approximate
05:41AM 37.0998 146.9583 51° Northeast  Level FlightAware Approximate
05:42AM 37.1927 147.1056 52° Northeast  Level FlightAware Approximate
05:43AM 37.2855 147.2532 52° Northeast  Level FlightAware Approximate
05:44AM 37.3781 147.4012 52° Northeast  Level FlightAware Approximate
05:45AM 37.4706 147.5496 52° Northeast  Level FlightAware Approximate
05:46AM 37.5628 147.6983 52° Northeast  Level FlightAware Approximate
05:47AM 37.6548 147.8475 52° Northeast  Level FlightAware Approximate
05:48AM 37.7140 148.0204 69° East  Level FlightAware Approximate
05:49AM 37.7681 148.1970 69° East  Level FlightAware Approximate
05:50AM 37.8218 148.3738 69° East  Level FlightAware Approximate
05:51AM 37.8754 148.5509 69° East  Level FlightAware Approximate
05:52AM 37.9286 148.7283 69° East  Level FlightAware Approximate
05:53AM 37.9817 148.9059 69° East  Level FlightAware Approximate
05:54AM 38.0344 149.0838 69° East  Level FlightAware Approximate
05:55AM 38.0837 149.2628 88° East  Level FlightAware Approximate
05:56AM 38.0883 149.4530 88° East  Level FlightAware Approximate
05:57AM 38.0927 149.6431 88° East  Level FlightAware Approximate
05:58AM 38.0967 149.8334 88° East  Level FlightAware Approximate
05:59AM 38.1109 150.0191 54° Northeast  Level FlightAware Approximate
06:00AM 38.1988 150.1733 54° Northeast  Level FlightAware Approximate
06:01AM 38.2865 150.3279 54° Northeast  Level FlightAware Approximate
06:02AM 38.3740 150.4828 54° Northeast  Level FlightAware Approximate
06:03AM 38.4613 150.6381 54° Northeast  Level FlightAware Approximate
06:04AM 38.5484 150.7938 54° Northeast  Level FlightAware Approximate
06:05AM 38.6353 150.9498 54° Northeast  Level FlightAware Approximate
06:06AM 38.7220 151.1063 55° Northeast  Level FlightAware Approximate
06:07AM 38.8084 151.2631 55° Northeast  Level FlightAware Approximate
06:08AM 38.8947 151.4203 55° Northeast  Level FlightAware Approximate
06:09AM 38.9807 151.5779 55° Northeast  Level FlightAware Approximate
06:10AM 39.0665 151.7358 55° Northeast  Level FlightAware Approximate
06:11AM 39.1521 151.8942 55° Northeast  Level FlightAware Approximate
06:12AM 39.2375 152.0529 55° Northeast  Level FlightAware Approximate
06:13AM 39.3227 152.2120 55° Northeast  Level FlightAware Approximate
06:14AM 39.4077 152.3716 55° Northeast  Level FlightAware Approximate
06:15AM 39.4924 152.5314 55° Northeast  Level FlightAware Approximate
06:16AM 39.5770 152.6917 56° Northeast  Level FlightAware Approximate
06:17AM 39.6613 152.8524 56° Northeast  Level FlightAware Approximate
06:18AM 39.7454 153.0135 56° Northeast  Level FlightAware Approximate
06:19AM 39.8292 153.1750 56° Northeast  Level FlightAware Approximate
06:20AM 39.9129 153.3368 56° Northeast  Level FlightAware Approximate
06:21AM 39.9963 153.4991 56° Northeast  Level FlightAware Approximate
06:22AM 40.0795 153.6617 56° Northeast  Level FlightAware Approximate
06:23AM 40.1624 153.8248 56° Northeast  Level FlightAware Approximate
06:24AM 40.2452 153.9882 56° Northeast  Level FlightAware Approximate
06:25AM 40.3277 154.1520 57° Northeast  Level FlightAware Approximate
06:26AM 40.4099 154.3163 57° Northeast  Level FlightAware Approximate
06:27AM 40.4920 154.4809 57° Northeast  Level FlightAware Approximate
06:28AM 40.5738 154.6460 57° Northeast  Level FlightAware Approximate
06:29AM 40.6553 154.8114 57° Northeast  Level FlightAware Approximate
06:30AM 40.7366 154.9773 57° Northeast  Level FlightAware Approximate
06:31AM 40.8177 155.1436 57° Northeast  Level FlightAware Approximate
06:32AM 40.8986 155.3102 57° Northeast  Level FlightAware Approximate
06:33AM 40.9792 155.4773 57° Northeast  Level FlightAware Approximate
06:34AM 41.0596 155.6448 57° Northeast  Level FlightAware Approximate
06:35AM 41.1397 155.8127 58° Northeast  Level FlightAware Approximate
06:36AM 41.2196 155.9810 58° Northeast  Level FlightAware Approximate
06:37AM 41.2992 156.1497 58° Northeast  Level FlightAware Approximate
06:38AM 41.3786 156.3188 58° Northeast  Level FlightAware Approximate
06:39AM 41.4577 156.4884 58° Northeast  Level FlightAware Approximate
06:40AM 41.5366 156.6583 58° Northeast  Level FlightAware Approximate
06:41AM 41.6153 156.8287 58° Northeast  Level FlightAware Approximate
06:42AM 41.6936 156.9995 58° Northeast  Level FlightAware Approximate
06:43AM 41.7718 157.1707 58° Northeast  Level FlightAware Approximate
06:44AM 41.8497 157.3423 59° Northeast  Level FlightAware Approximate
06:45AM 41.9273 157.5143 59° Northeast  Level FlightAware Approximate
06:46AM 42.0046 157.6867 59° Northeast  Level FlightAware Approximate
06:47AM 42.0817 157.8596 59° Northeast  Level FlightAware Approximate
06:48AM 42.1586 158.0329 59° Northeast  Level FlightAware Approximate
06:49AM 42.2352 158.2066 59° Northeast  Level FlightAware Approximate
06:50AM 42.3115 158.3807 59° Northeast  Level FlightAware Approximate
06:51AM 42.3876 158.5553 59° Northeast  Level FlightAware Approximate
06:52AM 42.4633 158.7303 60° Northeast  Level FlightAware Approximate
06:53AM 42.5389 158.9057 60° Northeast  Level FlightAware Approximate
06:54AM 42.6141 159.0815 60° Northeast  Level FlightAware Approximate
06:55AM 42.6891 159.2577 60° Northeast  Level FlightAware Approximate
06:56AM 42.7638 159.4344 60° Northeast  Level FlightAware Approximate
06:57AM 42.8383 159.6115 60° Northeast  Level FlightAware Approximate
06:58AM 42.9124 159.7890 60° Northeast  Level FlightAware Approximate
06:59AM 42.9863 159.9670 60° Northeast  Level FlightAware Approximate
07:00AM 43.0658 160.1406 57° Northeast  Level FlightAware Approximate
07:01AM 43.1463 160.3136 57° Northeast  Level FlightAware Approximate
07:02AM 43.2265 160.4870 58° Northeast  Level FlightAware Approximate
07:03AM 43.3064 160.6609 58° Northeast  Level FlightAware Approximate
07:04AM 43.3861 160.8353 58° Northeast  Level FlightAware Approximate
07:05AM 43.4656 161.0101 58° Northeast  Level FlightAware Approximate
07:06AM 43.5447 161.1853 58° Northeast  Level FlightAware Approximate
07:07AM 43.6236 161.3610 58° Northeast  Level FlightAware Approximate
07:08AM 43.7023 161.5372 58° Northeast  Level FlightAware Approximate
07:09AM 43.7806 161.7139 58° Northeast  Level FlightAware Approximate
07:10AM 43.8588 161.8908 58° Northeast  Level FlightAware Approximate
07:11AM 43.9371 162.0680 58° Northeast  Level FlightAware Approximate
07:12AM 44.0152 162.2456 59° Northeast  Level FlightAware Approximate
07:13AM 44.0929 162.4237 59° Northeast  Level FlightAware Approximate
07:14AM 44.1704 162.6023 59° Northeast  Level FlightAware Approximate
07:15AM 44.2476 162.7813 59° Northeast  Level FlightAware Approximate
07:16AM 44.3245 162.9608 59° Northeast  Level FlightAware Approximate
07:17AM 44.4011 163.1408 59° Northeast  Level FlightAware Approximate
07:18AM 44.4775 163.3212 59° Northeast  Level FlightAware Approximate
07:19AM 44.5535 163.5021 59° Northeast  Level FlightAware Approximate
07:19AM 44.7333 163.9167 60° Northeast 584 672 37,000  Level Oakland Oceanic (ODAPS)
07:20AM 44.6293 163.6835 60° Northeast  Level FlightAware Approximate
07:21AM 44.7051 163.8651 59° Northeast  Level FlightAware Approximate
07:22AM 44.7808 164.0470 60° Northeast  Level FlightAware Approximate
07:23AM 44.8562 164.2295 60° Northeast  Level FlightAware Approximate
07:24AM 44.9313 164.4124 60° Northeast  Level FlightAware Approximate
07:25AM 45.0061 164.5957 60° Northeast  Level FlightAware Approximate
07:26AM 45.2907 165.2918 61° Northeast 584 672 37,000  Level FlightAware Transoceanic
07:27AM 45.3689 165.4904 61° Northeast 584 672 37,000  Level FlightAware Transoceanic
07:28AM 45.4469 165.6896 61° Northeast 584 672 37,000  Level FlightAware Transoceanic
07:29AM 45.5244 165.8893 61° Northeast 584 672 37,000  Level FlightAware Transoceanic
07:30AM 45.6017 166.0896 61° Northeast 584 672 37,000  Level FlightAware Transoceanic
07:31AM 45.6785 166.2904 61° Northeast 584 672 37,000  Level FlightAware Transoceanic
07:32AM 45.7551 166.4918 62° Northeast 584 672 37,000  Level FlightAware Transoceanic
07:33AM 45.8312 166.6938 62° Northeast 584 672 37,000  Level FlightAware Transoceanic
07:33AM 45.8333 166.7000 62° Northeast 585 673 37,000  Level Oakland Oceanic (ODAPS)
07:34AM 45.9070 166.8963 62° Northeast 584 672 37,000  Level FlightAware Transoceanic
07:35AM 45.9825 167.0993 62° Northeast 584 672 37,000  Level FlightAware Transoceanic
07:36AM 46.0575 167.3029 62° Northeast 584 672 37,000  Level FlightAware Transoceanic
07:37AM 46.1323 167.5070 62° Northeast 584 672 37,000  Level FlightAware Transoceanic
07:38AM 46.2066 167.7117 62° Northeast 584 672 37,000  Level FlightAware Transoceanic
07:39AM 46.2819 167.9209 63° Northeast 585 673 37,000  Level FlightAware Transoceanic
07:40AM 46.3554 168.1264 63° Northeast 585 673 37,000  Level FlightAware Transoceanic
07:41AM 46.4285 168.3323 63° Northeast 585 673 37,000  Level FlightAware Transoceanic
07:42AM 46.5013 168.5389 63° Northeast 585 673 37,000  Level FlightAware Transoceanic
07:43AM 46.5737 168.7460 63° Northeast 585 673 37,000  Level FlightAware Transoceanic
07:44AM 46.6457 168.9536 63° Northeast 585 673 37,000  Level FlightAware Transoceanic
07:45AM 46.7173 169.1618 63° Northeast 585 673 37,000  Level FlightAware Transoceanic
07:46AM 46.7885 169.3705 64° Northeast 585 673 37,000  Level FlightAware Transoceanic
07:47AM 46.8594 169.5798 64° Northeast 585 673 37,000  Level FlightAware Transoceanic
07:47AM 46.8667 169.6000 64° Northeast 584 672 37,000  Level Oakland Oceanic (ODAPS)
07:48AM 46.9299 169.7896 64° Northeast 585 673 37,000  Level FlightAware Transoceanic
07:49AM 47.0000 170.0000 70° East 585 673 37,000  Level FlightAware Transoceanic
07:50AM 47.0536 170.2134 70° East 585 673 37,000  Level FlightAware Transoceanic
07:50AM 47.0500 170.2333 70° East 565 650 37,000  Level Oakland Oceanic (ODAPS)
07:51AM 47.1069 170.4273 70° East 585 673 37,000  Level FlightAware Transoceanic
07:52AM 47.1598 170.6416 70° East 585 673 37,000  Level FlightAware Transoceanic
07:53AM 47.2122 170.8563 70° East 584 672 37,000  Level FlightAware Transoceanic
07:54AM 47.2643 171.0714 70° East 584 672 37,000  Level FlightAware Transoceanic
07:55AM 47.3159 171.2870 71° East 584 672 37,000  Level FlightAware Transoceanic
07:56AM 47.3638 171.5202 71° East 565 650 37,000  Level FlightAware Transoceanic
07:57AM 47.4147 171.7361 71° East 565 650 37,000  Level FlightAware Transoceanic
07:58AM 47.4652 171.9525 71° East 565 650 37,000  Level FlightAware Transoceanic
07:59AM 47.5153 172.1692 71° East 565 650 37,000  Level FlightAware Transoceanic
08:00AM 47.5649 172.3864 71° East 565 650 37,000  Level FlightAware Transoceanic
08:01AM 47.6142 172.6040 72° East 565 650 37,000  Level FlightAware Transoceanic
08:01AM 47.6333 172.6667 72° East 573 659 37,000  Level Oakland Oceanic (ODAPS)
08:02AM 47.6631 172.8220 72° East 565 650 37,000  Level FlightAware Transoceanic
08:03AM 47.7115 173.0404 72° East 565 650 37,000  Level FlightAware Transoceanic
08:04AM 47.7595 173.2592 72° East 565 650 37,000  Level FlightAware Transoceanic
08:05AM 47.8071 173.4785 72° East 565 650 37,000  Level FlightAware Transoceanic
08:06AM 47.8543 173.6981 72° East 565 650 37,000  Level FlightAware Transoceanic
08:07AM 47.9161 173.9700 73° East 573 659 37,000  Level FlightAware Transoceanic
08:07AM 47.9500 174.1000 73° East 571 657 37,000  Level Oakland Oceanic (ODAPS)
08:08AM 47.9618 174.1886 73° East 573 659 37,000  Level FlightAware Transoceanic
08:09AM 48.0071 174.4076 73° East 573 659 37,000  Level FlightAware Transoceanic
08:10AM 48.0519 174.6270 73° East 573 659 37,000  Level FlightAware Transoceanic
08:11AM 48.0964 174.8467 73° East 573 659 37,000  Level FlightAware Transoceanic
08:12AM 48.1404 175.0668 73° East 573 659 37,000  Level FlightAware Transoceanic
08:13AM 48.1840 175.2873 74° East 573 659 37,000  Level FlightAware Transoceanic
08:14AM 48.2293 175.4933 74° East 571 657 37,000  Level FlightAware Transoceanic
08:15AM 48.2742 175.7270 74° East 571 657 37,000  Level FlightAware Transoceanic
08:15AM 48.2833 175.7667 74° East 574 661 37,000  Level Oakland Oceanic (ODAPS)
08:16AM 48.3187 175.9611 74° East 571 657 37,000  Level FlightAware Transoceanic
08:17AM 48.3626 176.1956 74° East 571 657 37,000  Level FlightAware Transoceanic
08:18AM 48.4061 176.4305 75° East 571 657 37,000  Level FlightAware Transoceanic
08:19AM 48.4491 176.6658 75° East 571 657 37,000  Level FlightAware Transoceanic
08:20AM 48.4916 176.9014 75° East 571 657 37,000  Level FlightAware Transoceanic
08:21AM 48.5394 177.1643 75° East 574 661 37,000  Level FlightAware Transoceanic
08:22AM 48.5804 177.3986 75° East 574 661 37,000  Level FlightAware Transoceanic
08:23AM 48.6210 177.6332 75° East 574 661 37,000  Level FlightAware Transoceanic
08:24AM 48.6611 177.8683 76° East 574 661 37,000  Level FlightAware Transoceanic
08:25AM 48.7006 178.1037 76° East 574 661 37,000  Level FlightAware Transoceanic
08:26AM 48.7398 178.3395 76° East 574 661 37,000  Level FlightAware Transoceanic
08:27AM 48.7784 178.5756 76° East 574 661 37,000  Level FlightAware Transoceanic
08:28AM 48.8166 178.8121 76° East 574 661 37,000  Level FlightAware Transoceanic
08:28AM 48.8500 178.9833 77° East 570 656 37,000  Level Oakland Oceanic (ODAPS)
08:29AM 48.8542 179.0490 77° East 574 661 37,000  Level FlightAware Transoceanic
08:30AM 48.8914 179.2862 77° East 574 661 37,000  Level FlightAware Transoceanic
08:31AM 48.9281 179.5238 77° East 574 661 37,000  Level FlightAware Transoceanic
08:32AM 48.9643 179.7617 77° East 574 661 37,000  Level FlightAware Transoceanic
08:33AM 49.0000 -180.0000 77° East 574 661 37,000  Level FlightAware Transoceanic
08:33AM 49.0000 180.0000 77° East 574 661 37,000  Level Oakland Oceanic (ODAPS)
08:34AM 49.0337 -179.7672 78° East 574 661 37,000  Level FlightAware Transoceanic
08:35AM 49.0669 -179.5342 78° East 570 656 37,000  Level FlightAware Transoceanic
08:36AM 49.0997 -179.3008 78° East 570 656 37,000  Level FlightAware Transoceanic
08:37AM 49.1320 -179.0671 78° East 570 656 37,000  Level FlightAware Transoceanic
08:38AM 49.1638 -178.8331 78° East 570 656 37,000  Level FlightAware Transoceanic
08:39AM 49.1997 -178.5645 79° East 574 661 37,000  Level FlightAware Transoceanic
08:40AM 49.2313 -178.3241 79° East 574 661 37,000  Level FlightAware Transoceanic
08:41AM 49.2623 -178.0835 79° East 574 661 37,000  Level FlightAware Transoceanic
08:42AM 49.2929 -177.8425 79° East 574 661 37,000  Level FlightAware Transoceanic
08:42AM 49.3000 -177.7500 79° East 576 663 37,000  Level Oakland Oceanic (ODAPS)
08:43AM 49.3229 -177.6012 79° East 574 661 37,000  Level FlightAware Transoceanic
08:44AM 49.3525 -177.3597 79° East 574 661 37,000  Level FlightAware Transoceanic
08:45AM 49.3815 -177.1178 80° East 574 661 37,000  Level FlightAware Transoceanic
08:46AM 49.4100 -176.8757 80° East 574 661 37,000  Level FlightAware Transoceanic
08:47AM 49.4380 -176.6333 80° East 574 661 37,000  Level FlightAware Transoceanic
08:48AM 49.4656 -176.3907 80° East 574 661 37,000  Level FlightAware Transoceanic
08:49AM 49.4756 -176.2686 80° East 576 663 37,000  Level FlightAware Transoceanic
08:50AM 49.5031 -176.0207 80° East 576 663 37,000  Level FlightAware Transoceanic
08:51AM 49.5300 -175.7725 81° East 576 663 37,000  Level FlightAware Transoceanic
08:52AM 49.5563 -175.5241 81° East 576 663 37,000  Level FlightAware Transoceanic
08:53AM 49.5822 -175.2754 81° East 576 663 37,000  Level FlightAware Transoceanic
08:54AM 49.6075 -175.0264 81° East 576 663 37,000  Level FlightAware Transoceanic
08:55AM 49.6322 -174.7772 81° East 576 663 37,000  Level FlightAware Transoceanic
08:56AM 49.6565 -174.5277 82° East 576 663 37,000  Level FlightAware Transoceanic
08:56AM 49.6667 -174.4000 82° East 577 664 37,000  Level Oakland Oceanic (ODAPS)
08:57AM 49.6802 -174.2780 82° East 576 663 37,000  Level FlightAware Transoceanic
08:58AM 49.7033 -174.0280 82° East 576 663 37,000  Level FlightAware Transoceanic
08:59AM 49.7259 -173.7778 82° East 576 663 37,000  Level FlightAware Transoceanic
09:00AM 49.7480 -173.5273 82° East 576 663 37,000  Level FlightAware Transoceanic
09:01AM 49.7696 -173.2767 83° East 576 663 37,000  Level FlightAware Transoceanic
09:02AM 49.7906 -173.0258 83° East 576 663 37,000  Level FlightAware Transoceanic
09:03AM 49.8033 -172.8542 83° East 577 664 37,000  Level FlightAware Transoceanic
09:04AM 49.8241 -172.5957 83° East 577 664 37,000  Level FlightAware Transoceanic
09:05AM 49.8443 -172.3370 83° East 577 664 37,000  Level FlightAware Transoceanic
09:06AM 49.8639 -172.0781 83° East 577 664 37,000  Level FlightAware Transoceanic
09:07AM 49.8829 -171.8190 84° East 577 664 37,000  Level FlightAware Transoceanic
09:08AM 49.9014 -171.5597 84° East 577 664 37,000  Level FlightAware Transoceanic
09:09AM 49.9193 -171.3002 84° East 577 664 37,000  Level FlightAware Transoceanic
09:10AM 49.9366 -171.0405 84° East 577 664 37,000  Level FlightAware Transoceanic
09:10AM 49.9500 -170.9667 85° East 584 672 37,000  Level Oakland Oceanic (ODAPS)
09:11AM 49.9533 -170.7807 84° East 577 664 37,000  Level FlightAware Transoceanic
09:12AM 49.9695 -170.5206 85° East 577 664 37,000  Level FlightAware Transoceanic
09:13AM 49.9850 -170.2604 85° East 577 664 37,000  Level FlightAware Transoceanic
09:14AM 50.0000 -170.0000 95° East 577 664 37,000 1,020 Level FlightAware Transoceanic
09:14AM 50.0000 -170.0000 95° East 589 678 38,500  Climbing Oakland Oceanic (ODAPS)
09:15AM 49.9863 -169.7578 95° East 577 664 37,000 -1,020 Descending FlightAware Transoceanic
09:16AM 49.9721 -169.5157 95° East 577 664 37,000  Level FlightAware Transoceanic
09:17AM 49.9564 -169.2560 95° East 584 672 37,000  Level FlightAware Transoceanic
09:18AM 49.9408 -169.0083 96° East 584 672 37,000  Level FlightAware Transoceanic
09:19AM 49.9246 -168.7608 96° East 584 672 37,000 720 Level FlightAware Transoceanic
09:20AM 49.9080 -168.5134 96° East 589 678 38,500 720 Climbing FlightAware Transoceanic
09:21AM 49.8908 -168.2663 96° East 589 678 38,500  Level FlightAware Transoceanic
09:22AM 49.8731 -168.0192 96° East 589 678 38,500  Level FlightAware Transoceanic
09:23AM 49.8549 -167.7724 97° East 589 678 38,500  Level FlightAware Transoceanic
09:24AM 49.8361 -167.5258 97° East 589 678 38,500 300 Level FlightAware Transoceanic
09:24AM 49.8333 -167.4667 97° East 594 684 39,000  Climbing Oakland Oceanic (ODAPS)
09:25AM 49.8169 -167.2793 97° East 589 678 38,500 -360 Descending FlightAware Transoceanic
09:26AM 49.7971 -167.0331 97° East 589 678 38,500  Level FlightAware Transoceanic
09:27AM 49.7767 -166.7871 97° East 589 678 38,500  Level FlightAware Transoceanic
09:28AM 49.7559 -166.5412 98° East 589 678 38,500  Level FlightAware Transoceanic
09:29AM 49.7346 -166.2956 98° East 589 678 38,500 240 Level FlightAware Transoceanic
09:30AM 49.7054 -165.9541 98° East 594 684 39,000 240 Climbing FlightAware Transoceanic
09:31AM 49.6821 -165.7028 98° East 594 684 39,000  Level FlightAware Transoceanic
09:32AM 49.6584 -165.4517 98° East 594 684 39,000  Level FlightAware Transoceanic
09:33AM 49.6340 -165.2009 99° East 594 684 39,000  Level FlightAware Transoceanic
09:34AM 49.6092 -164.9504 99° East 594 684 39,000  Level FlightAware Transoceanic
09:35AM 49.5838 -164.7001 99° East 594 684 39,000  Level FlightAware Transoceanic
09:36AM 49.5578 -164.4501 99° East 594 684 39,000  Level FlightAware Transoceanic
09:37AM 49.5314 -164.2003 99° East 594 684 39,000  Level FlightAware Transoceanic
09:38AM 49.5043 -163.9508 100° East 594 684 39,000  Level FlightAware Transoceanic
09:38AM 49.5000 -163.9833 99° East 591 680 39,000  Level Oakland Oceanic (ODAPS)
09:39AM 49.4768 -163.7016 100° East 594 684 39,000  Level FlightAware Transoceanic
09:40AM 49.4487 -163.4527 100° East 594 684 39,000  Level FlightAware Transoceanic
09:41AM 49.4201 -163.2040 100° East 594 684 39,000  Level FlightAware Transoceanic
09:42AM 49.3909 -162.9557 100° East 594 684 39,000  Level FlightAware Transoceanic
09:43AM 49.3612 -162.7076 101° East 594 684 39,000  Level FlightAware Transoceanic
09:44AM 49.3286 -162.4802 101° East 591 680 39,000  Level FlightAware Transoceanic
09:45AM 49.2981 -162.2307 101° East 591 680 39,000  Level FlightAware Transoceanic
09:46AM 49.2671 -161.9816 101° East 591 680 39,000  Level FlightAware Transoceanic
09:47AM 49.2356 -161.7327 101° East 591 680 39,000  Level FlightAware Transoceanic
09:48AM 49.2035 -161.4842 101° East 591 680 39,000  Level FlightAware Transoceanic
09:49AM 49.1709 -161.2360 101° East 591 680 39,000  Level FlightAware Transoceanic
09:50AM 49.1378 -160.9881 102° East 591 680 39,000  Level FlightAware Transoceanic
09:51AM 49.1041 -160.7406 102° East 591 680 39,000  Level FlightAware Transoceanic
09:52AM 49.0700 -160.4934 102° East 591 680 39,000  Level FlightAware Transoceanic
09:52AM 49.0833 -160.5833 102° East 587 676 39,000  Level Oakland Oceanic (ODAPS)
09:53AM 49.0352 -160.2465 102° East 591 680 39,000  Level FlightAware Transoceanic
09:54AM 49.0000 -160.0000 103° East 591 680 39,000  Level FlightAware Transoceanic
09:54AM 49.0000 -160.0000 103° East 591 680 39,000  Level Oakland Oceanic (ODAPS)
09:55AM 48.9644 -159.7645 103° East 591 680 39,000  Level FlightAware Transoceanic
09:56AM 48.9283 -159.5294 103° East 591 680 39,000  Level FlightAware Transoceanic
09:57AM 48.8918 -159.2946 103° East 591 680 39,000  Level FlightAware Transoceanic
09:58AM 48.8548 -159.0601 104° East 587 676 39,000  Level FlightAware Transoceanic
09:59AM 48.8173 -158.8260 104° East 587 676 39,000  Level FlightAware Transoceanic
10:00AM 48.7793 -158.5923 104° East 587 676 39,000  Level FlightAware Transoceanic
10:01AM 48.7346 -158.3209 104° East 591 680 39,000  Level FlightAware Transoceanic
10:02AM 48.6947 -158.0826 104° East 591 680 39,000  Level FlightAware Transoceanic
10:03AM 48.6543 -157.8445 105° East 591 680 39,000  Level FlightAware Transoceanic
10:04AM 48.6134 -157.6069 105° East 591 680 39,000  Level FlightAware Transoceanic
10:05AM 48.5720 -157.3697 105° East 591 680 39,000  Level FlightAware Transoceanic
10:06AM 48.5302 -157.1328 105° East 591 680 39,000  Level FlightAware Transoceanic
10:06AM 48.5500 -157.2667 105° East 583 671 39,000  Level Oakland Oceanic (ODAPS)
10:07AM 48.4878 -156.8964 105° East 591 680 39,000  Level FlightAware Transoceanic
10:08AM 48.4450 -156.6603 105° East 591 680 39,000  Level FlightAware Transoceanic
10:09AM 48.4017 -156.4247 106° East 591 680 39,000  Level FlightAware Transoceanic
10:10AM 48.3579 -156.1894 106° East 591 680 39,000  Level FlightAware Transoceanic
10:11AM 48.3136 -155.9545 106° East 591 680 39,000  Level FlightAware Transoceanic
10:12AM 48.2947 -155.8718 106° East 583 671 39,000  Level FlightAware Transoceanic
10:13AM 48.2506 -155.6407 106° East 583 671 39,000  Level FlightAware Transoceanic
10:14AM 48.2059 -155.4100 106° East 583 671 39,000  Level FlightAware Transoceanic
10:15AM 48.1608 -155.1797 106° East 583 671 39,000  Level FlightAware Transoceanic
10:16AM 48.1153 -154.9498 107° East 583 671 39,000  Level FlightAware Transoceanic
10:17AM 48.0692 -154.7203 107° East 583 671 39,000  Level FlightAware Transoceanic
10:18AM 48.0228 -154.4912 107° East 583 671 39,000  Level FlightAware Transoceanic
10:19AM 47.9758 -154.2626 107° East 583 671 39,000  Level FlightAware Transoceanic
10:19AM 47.9333 -154.0500 107° East 584 672 39,000  Level Oakland Oceanic (ODAPS)
10:20AM 47.9285 -154.0343 107° East 583 671 39,000  Level FlightAware Transoceanic
10:21AM 47.8806 -153.8065 107° East 583 671 39,000  Level FlightAware Transoceanic
10:22AM 47.8324 -153.5791 108° East 583 671 39,000  Level FlightAware Transoceanic
10:23AM 47.7836 -153.3521 108° East 583 671 39,000  Level FlightAware Transoceanic
10:24AM 47.7345 -153.1256 108° East 583 671 39,000  Level FlightAware Transoceanic
10:25AM 47.6848 -152.8995 108° East 583 671 39,000  Level FlightAware Transoceanic
10:26AM 47.6381 -152.6841 108° East 584 672 39,000  Level FlightAware Transoceanic
10:27AM 47.5874 -152.4580 109° East 584 672 39,000  Level FlightAware Transoceanic
10:28AM 47.5362 -152.2323 109° East 584 672 39,000  Level FlightAware Transoceanic
10:29AM 47.4845 -152.0070 109° East 584 672 39,000  Level FlightAware Transoceanic
10:30AM 47.4324 -151.7822 109° East 584 672 39,000  Level FlightAware Transoceanic
10:31AM 47.3799 -151.5578 109° East 584 672 39,000  Level FlightAware Transoceanic
10:32AM 47.3269 -151.3339 109° East 584 672 39,000  Level FlightAware Transoceanic
10:33AM 47.2735 -151.1105 109° East 584 672 39,000  Level FlightAware Transoceanic
10:33AM 47.2167 -150.9000 109° East 593 682 39,000  Level Oakland Oceanic (ODAPS)
10:34AM 47.2197 -150.8875 110° East 584 672 39,000  Level FlightAware Transoceanic
10:35AM 47.1654 -150.6649 110° East 584 672 39,000  Level FlightAware Transoceanic
10:36AM 47.1107 -150.4428 110° East 584 672 39,000  Level FlightAware Transoceanic
10:37AM 47.0556 -150.2212 110° East 584 672 39,000  Level FlightAware Transoceanic
10:37AM 47.0000 -150.0000 110° East 601 692 39,000  Level Oakland Oceanic (ODAPS)
10:38AM 47.0000 -150.0000 110° East 584 672 39,000  Level FlightAware Transoceanic
10:39AM 46.9444 -149.7714 110° East 593 682 39,000  Level FlightAware Transoceanic
10:40AM 46.8883 -149.5433 110° East 593 682 39,000  Level FlightAware Transoceanic
10:41AM 46.8318 -149.3157 110° East 593 682 39,000  Level FlightAware Transoceanic
10:42AM 46.7748 -149.0886 110° East 593 682 39,000  Level FlightAware Transoceanic
10:43AM 46.7110 -148.8368 110° East 601 692 39,000  Level FlightAware Transoceanic
10:44AM 46.6517 -148.6057 111° Southeast 601 692 39,000  Level FlightAware Transoceanic
10:45AM 46.5921 -148.3750 111° Southeast 601 692 39,000  Level FlightAware Transoceanic
10:46AM 46.5319 -148.1449 111° Southeast 601 692 39,000  Level FlightAware Transoceanic
10:47AM 46.4713 -147.9153 111° Southeast 601 692 39,000  Level FlightAware Transoceanic
10:47AM 46.4333 -147.7500 111° Southeast 607 699 39,000  Level Oakland Oceanic (ODAPS)
10:48AM 46.4103 -147.6862 111° Southeast 601 692 39,000  Level FlightAware Transoceanic
10:49AM 46.3487 -147.4577 111° Southeast 601 692 39,000  Level FlightAware Transoceanic
10:50AM 46.2868 -147.2296 112° Southeast 601 692 39,000  Level FlightAware Transoceanic
10:51AM 46.2243 -147.0020 112° Southeast 601 692 39,000  Level FlightAware Transoceanic
10:52AM 46.1615 -146.7750 112° Southeast 601 692 39,000  Level FlightAware Transoceanic
10:53AM 46.0981 -146.5485 112° Southeast 601 692 39,000  Level FlightAware Transoceanic
10:54AM 46.0020 -146.1913 112° Southeast 607 699 39,000  Level FlightAware Transoceanic
10:55AM 45.9386 -145.9706 113° Southeast 607 699 39,000  Level FlightAware Transoceanic
10:56AM 45.8749 -145.7505 113° Southeast 607 699 39,000  Level FlightAware Transoceanic
10:57AM 45.8107 -145.5308 113° Southeast 607 699 39,000  Level FlightAware Transoceanic
10:58AM 45.7461 -145.3117 113° Southeast 607 699 39,000  Level FlightAware Transoceanic
10:59AM 45.6810 -145.0930 113° Southeast 607 699 39,000  Level FlightAware Transoceanic
11:00AM 45.6156 -144.8749 113° Southeast 607 699 39,000  Level FlightAware Transoceanic
11:01AM 45.5497 -144.6573 113° Southeast 607 699 39,000  Level FlightAware Transoceanic
11:01AM 45.5333 -144.6167 113° Southeast 617 710 39,000  Level Oakland Oceanic (ODAPS)
11:02AM 45.4835 -144.4402 114° Southeast 607 699 39,000  Level FlightAware Transoceanic
11:03AM 45.4168 -144.2236 114° Southeast 607 699 39,000  Level FlightAware Transoceanic
11:04AM 45.3497 -144.0075 114° Southeast 607 699 39,000  Level FlightAware Transoceanic
11:05AM 45.2822 -143.7919 114° Southeast 607 699 39,000  Level FlightAware Transoceanic
11:06AM 45.2143 -143.5769 114° Southeast 607 699 39,000  Level FlightAware Transoceanic
11:07AM 45.1144 -143.2726 114° Southeast 617 710 39,000  Level FlightAware Transoceanic
11:08AM 45.0430 -143.0506 115° Southeast 617 710 39,000  Level FlightAware Transoceanic
11:09AM 44.9712 -142.8290 115° Southeast 617 710 39,000  Level FlightAware Transoceanic
11:10AM 44.8990 -142.6081 115° Southeast 617 710 39,000  Level FlightAware Transoceanic
11:11AM 44.8264 -142.3877 115° Southeast 617 710 39,000  Level FlightAware Transoceanic
11:12AM 44.7533 -142.1678 115° Southeast 617 710 39,000  Level FlightAware Transoceanic
11:13AM 44.6799 -141.9485 115° Southeast 617 710 39,000  Level FlightAware Transoceanic
11:14AM 44.6060 -141.7298 115° Southeast 617 710 39,000  Level FlightAware Transoceanic
11:15AM 44.5317 -141.5116 116° Southeast 617 710 39,000  Level FlightAware Transoceanic
11:15AM 44.5333 -141.5333 115° Southeast 622 716 39,000  Level Oakland Oceanic (ODAPS)
11:16AM 44.4569 -141.2940 116° Southeast 617 710 39,000  Level FlightAware Transoceanic
11:17AM 44.3818 -141.0769 116° Southeast 617 710 39,000  Level FlightAware Transoceanic
11:18AM 44.3063 -140.8604 116° Southeast 617 710 39,000  Level FlightAware Transoceanic
11:19AM 44.2303 -140.6445 116° Southeast 617 710 39,000  Level FlightAware Transoceanic
11:20AM 44.1539 -140.4291 116° Southeast 617 710 39,000  Level FlightAware Transoceanic
11:21AM 44.0774 -140.2173 116° Southeast 622 716 39,000  Level FlightAware Transoceanic
11:22AM 44.0000 -140.0000 109° East 622 716 39,000  Level FlightAware Transoceanic
11:22AM 44.0000 -140.0000 109° East 610 702 39,000  Level Oakland Oceanic (ODAPS)
11:23AM 43.9488 -139.7907 109° East 622 716 39,000  Level FlightAware Transoceanic
11:24AM 43.8972 -139.5818 109° East 622 716 39,000  Level FlightAware Transoceanic
11:25AM 43.8453 -139.3733 109° East 622 716 39,000  Level FlightAware Transoceanic
11:26AM 43.7929 -139.1651 109° East 622 716 39,000  Level FlightAware Transoceanic
11:27AM 43.7402 -138.9573 109° East 622 716 39,000  Level FlightAware Transoceanic
11:28AM 43.6667 -138.6705 110° East 610 702 39,000  Level FlightAware Transoceanic
11:29AM 43.6096 -138.4504 110° East 610 702 39,000  Level FlightAware Transoceanic
11:29AM 43.6167 -138.4833 110° East 609 701 39,000  Level Oakland Oceanic (ODAPS)
11:30AM 43.5522 -138.2307 110° East 610 702 39,000  Level FlightAware Transoceanic
11:31AM 43.4943 -138.0114 110° East 610 702 39,000  Level FlightAware Transoceanic
11:32AM 43.4360 -137.7925 110° East 610 702 39,000  Level FlightAware Transoceanic
11:33AM 43.3773 -137.5741 110° East 610 702 39,000  Level FlightAware Transoceanic
11:34AM 43.3181 -137.3561 111° Southeast 610 702 39,000  Level FlightAware Transoceanic
11:35AM 43.2649 -137.1662 111° Southeast 609 701 39,000  Level FlightAware Transoceanic
11:36AM 43.2048 -136.9482 111° Southeast 609 701 39,000  Level FlightAware Transoceanic
11:37AM 43.1443 -136.7305 111° Southeast 609 701 39,000  Level FlightAware Transoceanic
11:38AM 43.0833 -136.5134 111° Southeast 609 701 39,000  Level FlightAware Transoceanic
11:39AM 43.0220 -136.2966 111° Southeast 609 701 39,000  Level FlightAware Transoceanic
11:40AM 42.9603 -136.0804 111° Southeast 609 701 39,000  Level FlightAware Transoceanic
11:41AM 42.8981 -135.8645 112° Southeast 609 701 39,000  Level FlightAware Transoceanic
11:42AM 42.8356 -135.6490 112° Southeast 609 701 39,000  Level FlightAware Transoceanic
11:43AM 42.7726 -135.4341 112° Southeast 609 701 39,000  Level FlightAware Transoceanic
11:43AM 42.7833 -135.4667 112° Southeast 601 692 39,000  Level Oakland Oceanic (ODAPS)
11:44AM 42.7093 -135.2195 112° Southeast 609 701 39,000  Level FlightAware Transoceanic
11:45AM 42.6455 -135.0054 112° Southeast 609 701 39,000  Level FlightAware Transoceanic
11:46AM 42.5814 -134.7917 112° Southeast 609 701 39,000  Level FlightAware Transoceanic
11:47AM 42.5168 -134.5785 112° Southeast 609 701 39,000  Level FlightAware Transoceanic
11:48AM 42.4519 -134.3657 113° Southeast 609 701 39,000  Level FlightAware Transoceanic
11:49AM 42.4097 -134.2255 113° Southeast 601 692 39,000  Level FlightAware Transoceanic
11:50AM 42.3461 -134.0201 113° Southeast 601 692 39,000  Level FlightAware Transoceanic
11:51AM 42.2822 -133.8151 113° Southeast 601 692 39,000  Level FlightAware Transoceanic
11:52AM 42.2179 -133.6105 113° Southeast 601 692 39,000  Level FlightAware Transoceanic
11:53AM 42.1532 -133.4064 113° Southeast 601 692 39,000  Level FlightAware Transoceanic
11:54AM 42.0882 -133.2027 113° Southeast 601 692 39,000  Level FlightAware Transoceanic
11:55AM 42.0228 -132.9993 113° Southeast 601 692 39,000  Level FlightAware Transoceanic
11:56AM 41.9571 -132.7964 114° Southeast 601 692 39,000  Level FlightAware Transoceanic
11:56AM 41.9000 -132.6333 114° Southeast 578 665 39,000  Level Oakland Oceanic (ODAPS)
11:57AM 41.8910 -132.5940 114° Southeast 601 692 39,000  Level FlightAware Transoceanic
11:58AM 41.8245 -132.3919 114° Southeast 601 692 39,000  Level FlightAware Transoceanic
11:59AM 41.7577 -132.1902 114° Southeast 601 692 39,000  Level FlightAware Transoceanic
12:00PM 41.6906 -131.9890 114° Southeast 601 692 39,000  Level FlightAware Transoceanic
12:01PM 41.6231 -131.7882 114° Southeast 601 692 39,000  Level FlightAware Transoceanic
12:02PM 41.5552 -131.5878 114° Southeast 601 692 39,000  Level FlightAware Transoceanic
12:03PM 41.4921 -131.4089 114° Southeast 578 665 39,000  Level FlightAware Transoceanic
12:04PM 41.4228 -131.2063 115° Southeast 578 665 39,000  Level FlightAware Transoceanic
12:05PM 41.3532 -131.0042 115° Southeast 578 665 39,000  Level FlightAware Transoceanic
12:06PM 41.2833 -130.8025 115° Southeast 578 665 39,000  Level FlightAware Transoceanic
12:07PM 41.2130 -130.6012 115° Southeast 578 665 39,000  Level FlightAware Transoceanic
12:08PM 41.1423 -130.4004 115° Southeast 578 665 39,000  Level FlightAware Transoceanic
12:09PM 41.0714 -130.2000 115° Southeast 578 665 39,000  Level FlightAware Transoceanic
12:10PM 41.0000 -130.0000 129° Southeast 578 665 39,000  Level FlightAware Transoceanic
12:10PM 41.0167 -130.0333 124° Southeast 538 619 39,000  Level Oakland Oceanic (ODAPS)
12:11PM 40.9097 -129.8532 129° Southeast 578 665 39,000  Level FlightAware Transoceanic
12:11PM 41.0000 -130.0000 129° Southeast 538 619 39,000  Level Oakland Oceanic (ODAPS)
12:12PM 40.8193 -129.7069 129° Southeast 578 665 39,000  Level FlightAware Transoceanic
12:13PM 40.7286 -129.5609 129° Southeast 578 665 39,000  Level FlightAware Transoceanic
12:14PM 40.6378 -129.4153 129° Southeast 578 665 39,000  Level FlightAware Transoceanic
12:15PM 40.5468 -129.2702 130° Southeast 578 665 39,000  Level FlightAware Transoceanic
12:16PM 40.4556 -129.1254 130° Southeast 578 665 39,000  Level FlightAware Transoceanic
12:17PM 40.4282 -129.0820 130° Southeast 538 619 39,000  Level FlightAware Transoceanic
12:18PM 40.3322 -128.9306 130° Southeast 538 619 39,000  Level FlightAware Transoceanic
12:19PM 40.2360 -128.7795 130° Southeast 538 619 39,000  Level FlightAware Transoceanic
12:20PM 40.1396 -128.6289 130° Southeast 538 619 39,000  Level FlightAware Transoceanic
12:21PM 40.0430 -128.4787 130° Southeast 538 619 39,000  Level FlightAware Transoceanic
12:22PM 39.9462 -128.3290 130° Southeast 538 619 39,000  Level FlightAware Transoceanic
12:23PM 39.8492 -128.1796 130° Southeast 538 619 39,000  Level FlightAware Transoceanic
12:24PM 39.7521 -128.0307 130° Southeast 538 619 39,000  Level FlightAware Transoceanic
12:24PM 39.7167 -127.9833 130° Southeast 519 597 39,000  Level Oakland Oceanic (ODAPS)
12:25PM 39.6547 -127.8822 130° Southeast 538 619 39,000  Level FlightAware Transoceanic
12:26PM 39.5572 -127.7342 131° Southeast 538 619 39,000  Level FlightAware Transoceanic
12:27PM 39.4594 -127.5865 131° Southeast 538 619 39,000  Level FlightAware Transoceanic
12:28PM 39.3615 -127.4393 131° Southeast 538 619 39,000  Level FlightAware Transoceanic
12:28PM 39.2992 -127.4133 131° Southeast 518 596 39,000  Level Oakland Center
12:29PM 39.2634 -127.2924 131° Southeast 538 619 39,000  Level FlightAware Transoceanic
12:29PM 39.3000 -127.3500 131° Southeast 519 597 39,000  Level Oakland Oceanic (ODAPS)
12:30PM 39.1756 -127.1626 131° Southeast 519 597 39,000  Level FlightAware Transoceanic
12:30PM 39.2097 -127.2725 129° Southeast 513 590 39,000  Level Oakland Center
12:31PM 39.0667 -127.0000 132° Southeast 519 597 39,000  Level FlightAware Transoceanic
12:31PM 39.1233 -127.0856 121° Southeast 531 611 39,000  Level Oakland Center
12:32PM 38.9785 -126.8733 132° Southeast 519 597 39,000  Level FlightAware Transoceanic
12:32PM 39.0286 -126.9456 131° Southeast 522 601 39,000  Level Oakland Center
12:33PM 38.8902 -126.7469 132° Southeast 519 597 39,000  Level FlightAware Transoceanic
12:33PM 38.9322 -126.8111 133° Southeast 516 594 39,000  Level Oakland Center
12:34PM 38.8018 -126.6208 132° Southeast 519 597 39,000  Level FlightAware Transoceanic
12:34PM 38.8542 -126.6594 123° Southeast 513 590 39,000 -120 Level Oakland Center
12:35PM 38.7878 -126.4992 118° Southeast 512 589 38,900 -60 Descending Oakland Center
12:36PM 38.7208 -126.3403 118° Southeast 511 588 38,900  Level Oakland Center
12:41PM 38.3180 -125.4110 118° Southeast 506 582 39,000  Climbing FlightAware
12:42PM 38.2710 -125.3020 119° Southeast 506 582 39,000  Level FlightAware
12:43PM 38.2360 -125.2220 119° Southeast 506 582 39,000  Level FlightAware
12:43PM 38.2030 -125.1470 119° Southeast 506 582 39,000  Level FlightAware
12:44PM 38.1680 -125.0650 118° Southeast 506 582 39,000  Level FlightAware
12:44PM 38.1010 -124.9310 122° Southeast 506 582 39,000  Level FlightAware
12:45PM 38.0560 -124.8340 120° Southeast 505 581 39,000  Level FlightAware
12:46PM 38.0140 -124.7430 120° Southeast 504 580 39,000  Level FlightAware
12:46PM 37.9770 -124.6620 120° Southeast 503 579 39,000  Level FlightAware
12:47PM 37.9310 -124.5640 121° Southeast 502 578 39,000  Level FlightAware
12:47PM 37.8890 -124.4740 121° Southeast 501 577 39,000  Level FlightAware
12:48PM 37.8540 -124.3970 120° Southeast 501 577 39,000  Level FlightAware
12:49PM 37.8170 -124.3170 120° Southeast 501 577 39,000  Level FlightAware
12:49PM 37.7660 -124.2090 121° Southeast 501 577 39,000  Level FlightAware
12:50PM 37.7290 -124.1320 121° Southeast 502 578 39,000  Level FlightAware
12:50PM 37.6860 -124.0400 121° Southeast 501 577 39,000  Level FlightAware
12:51PM 37.6430 -123.9480 121° Southeast 500 575 39,000  Level FlightAware
12:52PM 37.6010 -123.8600 121° Southeast 500 575 39,000  Level FlightAware
12:52PM 37.5430 -123.7390 121° Southeast 498 573 39,000  Level FlightAware
12:53PM 37.5010 -123.6500 121° Southeast 498 573 39,000  Level FlightAware
12:54PM 37.4630 -123.5700 121° Southeast 497 572 39,000  Level FlightAware
12:54PM 37.4190 -123.4790 121° Southeast 497 572 39,000  Level FlightAware
12:55PM 37.3770 -123.3910 121° Southeast 496 571 39,000  Level FlightAware
12:55PM 37.3420 -123.3180 121° Southeast 494 568 39,000  Level FlightAware
12:56PM 37.2940 -123.2190 121° Southeast 494 568 39,000  Level FlightAware
12:56PM 37.2600 -123.1500 122° Southeast 495 570 39,000  Level FlightAware
12:57PM 37.2230 -123.0740 121° Southeast 495 570 39,000  Level FlightAware
12:58PM 37.1720 -122.9680 121° Southeast 494 568 39,000  Level FlightAware
12:58PM 37.1291 -122.8810 122° Southeast 495 570 39,000  Level FlightAware ADS-B
12:59PM 37.0927 -122.8070 122° Southeast 495 570 39,000  Level FlightAware ADS-B
12:59PM 37.0557 -122.7310 121° Southeast 494 568 39,000  Level FlightAware ADS-B
01:00PM 37.0202 -122.6590 122° Southeast 493 567 39,000  Level FlightAware ADS-B
01:00PM 36.9827 -122.5830 122° Southeast 493 567 39,000  Level FlightAware ADS-B
01:01PM 36.9452 -122.5070 122° Southeast 493 567 39,000  Level FlightAware ADS-B
01:02PM 36.8770 -122.3700 122° Southeast 491 565 39,000  Level FlightAware
01:02PM 36.8390 -122.2920 121° Southeast 490 564 39,000  Level FlightAware
01:03PM 36.7930 -122.2010 122° Southeast 489 563 39,000  Level FlightAware
01:03PM 36.7741 -122.1620 121° Southeast 490 564 39,000  Level FlightAware ADS-B
01:04PM 36.7100 -122.0350 122° Southeast 487 560 39,000  Level FlightAware
01:05PM 36.6720 -121.9590 122° Southeast 486 559 39,000  Level FlightAware
01:05PM 36.6399 -121.8950 122° Southeast 487 560 39,000  Level FlightAware ADS-B
01:06PM 36.5860 -121.7890 122° Southeast 486 559 39,000  Level FlightAware
01:06PM 36.5616 -121.7400 122° Southeast 486 559 39,000  Level FlightAware ADS-B
01:07PM 36.5030 -121.6240 122° Southeast 483 556 39,000  Level FlightAware
01:07PM 36.4839 -121.5870 123° Southeast 484 557 39,000  Level FlightAware ADS-B
01:08PM 36.4200 -121.4610 122° Southeast 483 556 39,000  Level FlightAware
01:09PM 36.3790 -121.3810 122° Southeast 484 557 39,000  Level FlightAware
01:09PM 36.3380 -121.3000 122° Southeast 482 555 39,000  Level FlightAware
01:10PM 36.3173 -121.2600 123° Southeast 482 555 39,000  Level FlightAware ADS-B
01:10PM 36.2813 -121.1910 123° Southeast 483 556 39,000  Level FlightAware ADS-B
01:11PM 36.2225 -121.0760 122° Southeast 484 557 39,000  Level FlightAware ADS-B
01:12PM 36.1720 -120.9790 123° Southeast 482 555 39,000  Level FlightAware
01:12PM 36.1340 -120.9050 122° Southeast 482 555 39,000  Level FlightAware
01:13PM 36.0900 -120.8200 123° Southeast 484 557 39,000  Level FlightAware
01:13PM 36.0450 -120.7330 123° Southeast 486 559 39,000  Level FlightAware
01:14PM 36.0020 -120.6520 123° Southeast 488 562 39,000  Level FlightAware
01:14PM 35.9570 -120.5650 123° Southeast 489 563 39,000  Level FlightAware
01:15PM 35.9190 -120.4920 123° Southeast 489 563 39,000  Level FlightAware
01:16PM 35.8740 -120.4070 123° Southeast 490 564 39,000  Level FlightAware
01:16PM 35.8270 -120.3180 123° Southeast 492 566 39,000  Level FlightAware
01:17PM 35.7870 -120.2420 123° Southeast 493 567 39,000  Level FlightAware
01:17PM 35.7490 -120.1710 123° Southeast 493 567 39,000  Level FlightAware
01:18PM 35.7000 -120.0780 123° Southeast 492 566 39,000  Level FlightAware
01:19PM 35.6540 -119.9980 125° Southeast 492 566 39,000  Level FlightAware
01:19PM 35.6030 -119.9400 137° Southeast 493 567 39,000  Level FlightAware
01:20PM 35.5400 -119.8860 145° Southeast 496 571 39,000  Level FlightAware
01:20PM 35.4720 -119.8280 145° Southeast 499 574 39,000 -360 Level FlightAware
01:21PM 35.3950 -119.7610 145° Southeast 499 574 38,600 -1,380 Descending FlightAware
01:21PM 35.3300 -119.7050 145° Southeast 497 572 37,300 -2,340 Descending FlightAware
01:22PM 35.2600 -119.6450 145° Southeast 495 570 35,800 -2,640 Descending FlightAware
01:23PM 35.1950 -119.5890 145° Southeast 498 573 34,200 -2,880 Descending FlightAware
01:23PM 35.1300 -119.5330 145° Southeast 503 579 32,500 -3,000 Descending FlightAware
01:24PM 35.0660 -119.4790 145° Southeast 504 580 30,800 -3,180 Descending FlightAware
01:24PM 35.0010 -119.4240 145° Southeast 506 582 28,900 -3,180 Descending FlightAware
01:25PM 34.9380 -119.3700 145° Southeast 510 587 27,400 -2,640 Descending FlightAware
01:26PM 34.8630 -119.3060 145° Southeast 499 574 25,700 -2,520 Descending FlightAware
01:26PM 34.7890 -119.2440 145° Southeast 486 559 24,200 -2,580 Descending FlightAware
01:27PM 34.7330 -119.1970 145° Southeast 453 521 22,800 -3,000 Descending FlightAware
01:27PM 34.6770 -119.1500 145° Southeast 420 483 21,000 -2,520 Descending FlightAware
01:28PM 34.6220 -119.1040 145° Southeast 396 456 19,900 -1,740 Descending FlightAware
01:28PM 34.5720 -119.0620 145° Southeast 392 451 19,000 -1,620 Descending FlightAware
01:29PM 34.5180 -119.0160 145° Southeast 383 441 18,100 -1,620 Descending FlightAware
01:30PM 34.4650 -118.9720 146° Southeast 375 432 17,100 -1,680 Descending FlightAware
01:30PM 34.4160 -118.9310 145° Southeast 373 429 16,100 -1,620 Descending FlightAware
01:31PM 34.3690 -118.8930 146° Southeast 365 420 15,300 -1,620 Descending FlightAware
01:31PM 34.3190 -118.8680 158° South 357 411 14,400 -1,620 Descending FlightAware
01:32PM 34.2660 -118.8480 163° South 351 404 13,600 -1,560 Descending FlightAware
01:32PM 34.2150 -118.8290 163° South 349 402 12,700 -1,500 Descending FlightAware
01:33PM 34.1630 -118.8100 163° South 344 396 11,900 -1,380 Descending FlightAware
01:34PM 34.1100 -118.7910 163° South 334 384 11,100 -1,080 Descending FlightAware
01:34PM 34.0600 -118.7680 159° South 317 365 10,700 -840 Descending FlightAware
01:34PM 34.0500 -118.7570 138° Southeast 314 361 10,500 -1,200 Descending FlightAware
01:35PM 34.0410 -118.7420 126° Southeast 312 359 10,300 -960 Descending FlightAware
01:35PM 34.0360 -118.7280 113° Southeast 308 354 10,200 -720 Descending FlightAware
01:35PM 34.0340 -118.7150 101° East 304 350 10,100 -600 Descending FlightAware
01:35PM 34.0310 -118.6770 95° East 291 335 9,900 -360 Descending FlightAware
01:35PM 34.0290 -118.6520 96° East 278 320 9,900 -360 Level FlightAware
01:36PM 34.0260 -118.6250 98° East 270 311 9,700 -780 Descending FlightAware
01:36PM 34.0240 -118.6050 97° East 264 304 9,500 -780 Descending FlightAware
01:36PM 34.0210 -118.5750 97° East 255 293 9,300 -720 Descending FlightAware
01:37PM 34.0190 -118.5440 94° East 251 289 9,000 -840 Descending FlightAware
01:37PM 34.0160 -118.5180 98° East 242 278 8,700 -1,080 Descending FlightAware
01:37PM 34.0140 -118.4940 96° East 220 253 8,300 -1,560 Descending FlightAware
01:38PM 34.0120 -118.4710 96° East 213 245 7,700 -1,860 Descending FlightAware
01:38PM 34.0130 -118.4410 88° East 217 250 7,000 -1,380 Descending FlightAware
01:38PM 34.0160 -118.4180 81° East 215 247 6,700 -1,380 Descending FlightAware
01:39PM 34.0180 -118.3950 84° East 211 243 6,100 -2,040 Descending FlightAware
01:39PM 34.0190 -118.3810 85° East 210 242 5,700 -2,100 Descending FlightAware
01:39PM 34.0220 -118.3540 82° East 211 243 4,900 -2,160 Descending FlightAware
01:40PM 34.0240 -118.3290 84° East 213 245 4,100 -2,040 Descending FlightAware
01:40PM 34.0270 -118.3050 81° East 211 243 3,400 -1,740 Descending FlightAware
01:40PM 34.0290 -118.2780 85° East 201 231 2,800 -1,680 Descending FlightAware
01:41PM 34.0310 -118.2630 81° East 204 235 2,500 -540 Descending FlightAware
01:41PM 34.0240 -118.2260 103° East 194 223 2,400 -180 Descending FlightAware
01:41PM 34.0180 -118.2220 151° Southeast 193 222 2,400  Level FlightAware
01:41PM 34.0110 -118.2210 173° South 191 220 2,400  Level FlightAware
01:42PM 33.9960 -118.2280 201° Southwest 189 217 2,400  Level FlightAware
01:42PM 33.9830 -118.2450 227° Southwest 186 214 2,400  Level FlightAware
01:42PM 33.9740 -118.2590 232° Southwest 162 186 2,400 -240 Level FlightAware
01:43PM 33.9690 -118.2660 229° Southwest 154 177 2,300 -600 Descending FlightAware
01:43PM 33.9660 -118.2730 243° Southwest 153 176 2,200 -960 Descending FlightAware
01:43PM 33.9630 -118.3030 263° West 154 177 1,600 -960 Descending FlightAware
01:44PM 33.9610 -118.3150 259° West 153 176 1,400 -720 Descending FlightAware
01:44PM 33.9590 -118.3320 262° West 155 178 1,200 -780 Descending FlightAware
01:44PM 33.9570 -118.3500 262° West 160 184 900 -900 Descending FlightAware
01:45PM 33.9560 -118.3630 265° West 153 176 700 -900 Descending FlightAware
01:45PM 33.9540 -118.3790 261° West 151 174 400 -780 Descending FlightAware
01:45PM 33.9530 -118.3960 266° West 154 177 200 -360 Descending FlightAware
01:46PM 33.9510 -118.4210 264° West 151 174 100 -180 Descending FlightAware